Time;durP1;ratioP1;P1;durP2;ratioP2;P2;SDS_P1;SDS_P2;PMS_P1;PMS_P2;Temp;Humidity;BMP_temperature;BMP_pressure;BME280_temperature;BME280_humidity;BME280_pressure;Samples;Min_cycle;Max_cycle;Signal;HPM_P1;HPM_P2
2021/11/19 00:02:24;;;;;;;35.30;16.93;;;10.50;99.90;;;;;;5093845;27;20206;-58
2021/11/19 00:04:53;;;;;;;31.27;16.60;;;10.50;99.90;;;;;;5106363;28;20207;-58
2021/11/19 00:07:21;;;;;;;33.10;16.80;;;10.40;99.90;;;;;;5104270;28;20668;-59
2021/11/19 00:09:51;;;;;;;34.50;17.20;;;10.40;99.90;;;;;;5107088;28;20198;-58
2021/11/19 00:12:20;;;;;;;45.50;19.30;;;10.40;99.90;;;;;;5120614;27;20673;-59
2021/11/19 00:14:48;;;;;;;34.60;17.97;;;10.40;99.90;;;;;;5109282;27;20696;-58
2021/11/19 00:17:17;;;;;;;33.73;19.17;;;10.40;99.90;;;;;;5105774;28;20198;-58
2021/11/19 00:19:47;;;;;;;41.13;19.57;;;10.40;99.90;;;;;;5112018;27;20253;-59
2021/11/19 00:22:18;;;;;;;33.57;19.63;;;10.40;99.90;;;;;;5096796;27;20207;-59
2021/11/19 00:24:46;;;;;;;36.30;18.37;;;10.30;99.90;;;;;;5111070;27;20707;-57
2021/11/19 00:27:19;;;;;;;41.27;19.40;;;10.30;99.90;;;;;;5101931;28;20277;-58
2021/11/19 00:29:49;;;;;;;46.87;20.40;;;10.30;99.90;;;;;;5105607;27;20216;-58
2021/11/19 00:32:17;;;;;;;36.83;20.00;;;10.40;99.90;;;;;;5120780;27;20637;-59
2021/11/19 00:34:48;;;;;;;35.10;19.80;;;10.40;99.90;;;;;;5109043;27;20190;-59
2021/11/19 00:37:19;;;;;;;35.77;19.57;;;10.30;99.90;;;;;;5110300;27;20199;-58
2021/11/19 00:39:47;;;;;;;36.03;19.40;;;10.30;99.90;;;;;;5108596;27;20230;-59
2021/11/19 00:42:18;;;;;;;40.53;19.73;;;10.30;99.90;;;;;;5096893;28;20982;-59
2021/11/19 00:44:47;;;;;;;39.33;19.73;;;10.30;99.90;;;;;;5146514;27;20726;-58
2021/11/19 00:47:16;;;;;;;44.50;20.00;;;10.30;99.90;;;;;;5128719;27;20189;-58
2021/11/19 00:49:46;;;;;;;40.63;19.43;;;10.30;99.90;;;;;;5127411;27;20193;-59
2021/11/19 00:52:17;;;;;;;40.67;19.93;;;10.30;99.90;;;;;;5145921;27;20217;-58
2021/11/19 00:54:47;;;;;;;48.00;19.43;;;10.30;99.90;;;;;;5152471;27;20190;-58
2021/11/19 00:57:18;;;;;;;37.40;18.70;;;10.30;99.90;;;;;;5145630;27;20213;-57
2021/11/19 00:59:47;;;;;;;45.97;20.13;;;10.30;99.90;;;;;;5149727;27;20196;-59
2021/11/19 01:02:18;;;;;;;34.63;19.53;;;10.30;99.90;;;;;;5151605;27;20220;-58
2021/11/19 01:04:47;;;;;;;44.00;20.13;;;10.30;99.90;;;;;;5159470;27;20185;-59
2021/11/19 01:07:18;;;;;;;44.50;20.77;;;10.30;99.90;;;;;;5129002;27;20257;-57
2021/11/19 01:09:50;;;;;;;48.67;19.97;;;10.30;99.90;;;;;;5144156;27;20729;-59
2021/11/19 01:12:23;;;;;;;39.77;20.47;;;10.30;99.90;;;;;;5145350;27;20181;-59
2021/11/19 01:14:55;;;;;;;43.60;20.40;;;10.30;99.90;;;;;;5125344;27;20730;-59
2021/11/19 01:17:27;;;;;;;47.37;20.87;;;10.30;99.90;;;;;;5131143;27;20221;-59
2021/11/19 01:20:00;;;;;;;49.40;21.03;;;10.40;99.90;;;;;;5149351;27;20228;-58
2021/11/19 01:22:31;;;;;;;49.80;21.10;;;10.30;99.90;;;;;;5148880;27;20303;-59
2021/11/19 01:25:00;;;;;;;42.57;20.67;;;10.30;99.90;;;;;;5131495;27;20185;-59
2021/11/19 01:27:30;;;;;;;43.57;22.40;;;10.20;99.90;;;;;;5148785;27;20228;-59
2021/11/19 01:29:59;;;;;;;43.43;21.93;;;10.20;99.90;;;;;;5145586;27;20265;-59
2021/11/19 01:32:28;;;;;;;49.33;22.93;;;10.30;99.90;;;;;;5149448;27;20246;-58
2021/11/19 01:34:57;;;;;;;47.17;22.23;;;10.30;99.90;;;;;;5145493;27;20204;-59
2021/11/19 01:37:27;;;;;;;42.40;22.10;;;10.20;99.90;;;;;;5147896;27;20271;-59
2021/11/19 01:39:55;;;;;;;47.17;22.40;;;10.30;99.90;;;;;;5149163;27;20862;-58
2021/11/19 01:42:27;;;;;;;49.97;22.70;;;10.30;99.90;;;;;;5147240;27;20269;-58
2021/11/19 01:45:04;;;;;;;49.97;23.63;;;10.30;99.90;;;;;;5152972;27;20197;-58
2021/11/19 01:47:35;;;;;;;50.03;22.27;;;10.30;99.90;;;;;;5144812;27;20227;-58
2021/11/19 01:50:07;;;;;;;46.13;22.73;;;10.30;99.90;;;;;;5128242;27;20199;-59
2021/11/19 01:52:39;;;;;;;46.17;23.43;;;10.30;99.90;;;;;;5145367;27;20264;-58
2021/11/19 01:55:15;;;;;;;43.70;23.97;;;10.30;99.90;;;;;;5149131;27;20197;-57
2021/11/19 01:57:48;;;;;;;52.77;23.00;;;10.30;99.90;;;;;;5149022;27;20208;-58
2021/11/19 02:00:27;;;;;;;42.47;22.27;;;10.30;99.90;;;;;;5140507;27;20194;-58
2021/11/19 02:02:58;;;;;;;46.23;23.63;;;10.30;99.90;;;;;;5149357;27;20799;-58
2021/11/19 02:05:33;;;;;;;52.27;22.83;;;10.30;99.90;;;;;;5146908;27;20193;-59
2021/11/19 02:08:05;;;;;;;47.47;23.37;;;10.30;99.90;;;;;;5149185;27;20197;-58
2021/11/19 02:10:53;;;;;;;46.07;22.90;;;10.30;99.90;;;;;;5147845;27;20201;-59
2021/11/19 02:13:30;;;;;;;48.90;23.43;;;10.30;99.90;;;;;;5106824;27;20189;-58
2021/11/19 02:16:05;;;;;;;50.20;23.53;;;10.30;99.90;;;;;;5149045;27;20192;-59
2021/11/19 02:18:36;;;;;;;44.33;23.27;;;10.30;99.90;;;;;;5128135;27;20197;-59
2021/11/19 02:21:08;;;;;;;43.63;22.93;;;10.40;99.90;;;;;;5145574;27;20190;-58
2021/11/19 02:23:43;;;;;;;50.77;23.87;;;10.40;99.90;;;;;;5141683;27;20199;-58
2021/11/19 02:26:14;;;;;;;44.77;23.53;;;10.40;99.90;;;;;;5147995;27;20227;-57
2021/11/19 02:28:46;;;;;;;45.33;22.73;;;10.40;99.90;;;;;;5130363;27;20193;-58
2021/11/19 02:31:20;;;;;;;39.30;22.50;;;10.40;99.90;;;;;;5131721;27;20205;-59
2021/11/19 02:33:51;;;;;;;43.03;22.67;;;10.40;99.90;;;;;;5124248;27;20189;-58
2021/11/19 02:36:24;;;;;;;40.33;21.67;;;10.40;99.90;;;;;;5142485;27;20201;-58
2021/11/19 02:38:56;;;;;;;44.27;22.13;;;10.40;99.90;;;;;;5143940;27;20202;-58
2021/11/19 02:41:31;;;;;;;39.17;21.20;;;10.40;99.90;;;;;;5149448;27;20197;-59
2021/11/19 02:44:03;;;;;;;38.13;20.17;;;10.40;99.90;;;;;;5141806;27;20228;-59
2021/11/19 02:46:35;;;;;;;38.83;21.90;;;10.40;99.90;;;;;;5146114;27;20265;-58
2021/11/19 02:49:04;;;;;;;41.67;21.87;;;10.40;99.90;;;;;;5152815;27;20240;-58
2021/11/19 02:51:35;;;;;;;37.57;20.07;;;10.50;99.90;;;;;;5128652;27;20190;-58
2021/11/19 02:54:07;;;;;;;34.17;19.80;;;10.50;99.90;;;;;;5164508;27;20228;-59
2021/11/19 02:56:37;;;;;;;36.83;20.47;;;10.50;99.90;;;;;;5148422;27;20312;-58
2021/11/19 02:59:07;;;;;;;32.80;18.93;;;10.60;99.90;;;;;;5153122;27;20261;-59
2021/11/19 03:01:40;;;;;;;32.67;19.10;;;10.60;99.90;;;;;;5145958;27;20198;-58
2021/11/19 03:04:11;;;;;;;33.37;17.73;;;10.70;99.90;;;;;;5149491;27;20192;-59
2021/11/19 03:06:43;;;;;;;31.03;18.30;;;10.70;99.90;;;;;;5128021;27;20189;-57
2021/11/19 03:09:13;;;;;;;32.33;19.00;;;10.70;99.90;;;;;;5148223;27;20242;-57
2021/11/19 03:11:42;;;;;;;30.27;17.67;;;10.70;99.90;;;;;;5146442;27;20189;-58
2021/11/19 03:14:13;;;;;;;25.77;17.53;;;10.80;99.90;;;;;;5144075;27;20194;-58
2021/11/19 03:16:44;;;;;;;27.83;17.97;;;10.80;99.90;;;;;;5153253;27;20245;-57
2021/11/19 03:19:14;;;;;;;27.87;17.37;;;10.70;99.90;;;;;;5135292;27;20562;-58
2021/11/19 03:21:43;;;;;;;34.17;19.13;;;10.70;99.90;;;;;;5152792;27;20189;-58
2021/11/19 03:24:13;;;;;;;26.90;17.07;;;10.80;99.90;;;;;;5149404;27;20193;-58
2021/11/19 03:26:42;;;;;;;28.87;17.43;;;10.80;99.90;;;;;;5149238;27;20199;-57
2021/11/19 03:29:12;;;;;;;26.70;16.90;;;10.80;99.90;;;;;;5152039;27;20200;-58
2021/11/19 03:31:42;;;;;;;28.60;18.23;;;10.80;99.90;;;;;;5155998;27;20283;-58
2021/11/19 03:34:11;;;;;;;29.80;17.87;;;10.80;99.90;;;;;;5145707;27;20238;-58
2021/11/19 03:36:44;;;;;;;29.40;16.50;;;10.80;99.90;;;;;;5153063;27;20205;-58
2021/11/19 03:39:14;;;;;;;26.57;17.53;;;10.80;99.90;;;;;;5125665;27;20194;-58
2021/11/19 03:41:45;;;;;;;28.10;18.20;;;10.90;99.90;;;;;;5149454;27;20238;-58
2021/11/19 03:44:18;;;;;;;27.73;17.97;;;10.80;99.90;;;;;;5155440;27;20228;-58
2021/11/19 03:46:53;;;;;;;27.37;16.50;;;10.90;99.90;;;;;;5132945;27;20199;-59
2021/11/19 03:49:22;;;;;;;28.77;16.23;;;10.90;99.90;;;;;;5147250;27;20869;-58
2021/11/19 03:51:53;;;;;;;30.00;17.70;;;10.90;99.90;;;;;;5148038;27;20240;-57
2021/11/19 03:54:25;;;;;;;30.63;17.80;;;10.90;99.90;;;;;;5132373;27;20178;-58
2021/11/19 03:56:56;;;;;;;29.60;17.53;;;10.80;99.90;;;;;;5151792;27;20945;-58
2021/11/19 03:59:25;;;;;;;29.47;17.10;;;10.80;99.90;;;;;;5146287;27;20197;-58
2021/11/19 04:01:57;;;;;;;28.67;17.60;;;10.90;99.90;;;;;;5153574;27;20226;-58
2021/11/19 04:04:29;;;;;;;29.13;17.63;;;10.90;99.90;;;;;;5146919;27;20683;-58
2021/11/19 04:07:00;;;;;;;27.07;17.40;;;10.90;99.90;;;;;;5148847;27;20193;-58
2021/11/19 04:09:29;;;;;;;32.83;17.60;;;10.90;99.90;;;;;;5146298;27;20843;-58
2021/11/19 04:11:59;;;;;;;26.93;17.10;;;10.90;99.90;;;;;;5154960;27;20208;-58
2021/11/19 04:14:29;;;;;;;27.07;17.73;;;10.90;99.90;;;;;;5147064;27;20194;-58
2021/11/19 04:17:00;;;;;;;26.20;18.00;;;10.90;99.90;;;;;;5155274;27;20196;-58
2021/11/19 04:19:31;;;;;;;27.63;16.80;;;10.90;99.90;;;;;;5129537;27;20189;-58
2021/11/19 04:22:03;;;;;;;35.90;17.73;;;10.90;99.90;;;;;;5135610;27;20258;-59
2021/11/19 04:24:34;;;;;;;27.33;16.90;;;10.80;99.90;;;;;;5153334;27;20234;-58
2021/11/19 04:27:05;;;;;;;26.87;17.60;;;10.80;99.90;;;;;;5149322;27;20190;-58
2021/11/19 04:29:33;;;;;;;24.80;17.17;;;10.80;99.90;;;;;;5129209;27;20188;-58
2021/11/19 04:32:05;;;;;;;30.70;16.80;;;10.80;99.90;;;;;;5150679;27;20207;-58
2021/11/19 04:34:33;;;;;;;22.20;15.53;;;10.80;99.90;;;;;;5148908;27;20267;-58
2021/11/19 04:37:02;;;;;;;26.27;17.13;;;10.80;99.90;;;;;;5151461;27;20204;-58
2021/11/19 04:39:31;;;;;;;28.33;16.70;;;10.80;99.90;;;;;;5142425;27;20199;-57
2021/11/19 04:42:00;;;;;;;29.27;18.03;;;10.80;99.90;;;;;;5148744;27;20194;-57
2021/11/19 04:44:31;;;;;;;27.73;16.60;;;10.80;99.90;;;;;;5153874;27;20313;-58
2021/11/19 04:47:00;;;;;;;23.37;16.60;;;10.80;99.90;;;;;;5153974;27;20193;-57
2021/11/19 04:49:31;;;;;;;26.40;16.47;;;10.80;99.90;;;;;;5131178;27;20220;-57
2021/11/19 04:52:00;;;;;;;24.00;15.77;;;10.90;99.90;;;;;;5152732;27;20207;-58
2021/11/19 04:54:29;;;;;;;24.50;16.43;;;10.90;99.90;;;;;;5136277;27;20185;-57
2021/11/19 04:56:58;;;;;;;26.60;17.40;;;10.80;99.90;;;;;;5150188;27;20205;-57
2021/11/19 04:59:27;;;;;;;28.77;16.97;;;10.90;99.90;;;;;;5154100;27;20217;-58
2021/11/19 05:02:07;;;;;;;27.20;17.00;;;10.90;99.90;;;;;;5144156;27;20205;-58
2021/11/19 05:04:38;;;;;;;30.70;17.50;;;10.90;99.90;;;;;;5148297;27;20604;-57
2021/11/19 05:07:06;;;;;;;29.20;18.63;;;10.90;99.90;;;;;;5131835;27;20281;-57
2021/11/19 05:09:35;;;;;;;33.07;19.10;;;10.90;99.90;;;;;;5130547;27;20657;-58
2021/11/19 05:12:07;;;;;;;30.80;18.47;;;10.90;99.90;;;;;;5155015;27;20189;-58
2021/11/19 05:14:36;;;;;;;32.97;20.33;;;10.90;99.90;;;;;;5147753;27;20192;-58
2021/11/19 05:17:07;;;;;;;34.47;20.50;;;10.90;99.90;;;;;;5143181;27;20277;-58
2021/11/19 05:19:37;;;;;;;34.80;20.77;;;10.90;99.90;;;;;;5126751;27;20189;-58
2021/11/19 05:22:08;;;;;;;38.20;21.40;;;10.80;99.90;;;;;;5136060;27;20185;-58
2021/11/19 05:24:38;;;;;;;38.33;21.60;;;10.80;99.90;;;;;;5135081;27;20300;-59
2021/11/19 05:27:07;;;;;;;37.63;21.90;;;10.80;99.90;;;;;;5127151;27;20185;-58
2021/11/19 05:29:35;;;;;;;43.83;22.73;;;10.80;99.90;;;;;;5148873;27;20671;-58
2021/11/19 05:32:06;;;;;;;40.67;22.77;;;10.80;99.90;;;;;;5127456;27;20220;-58
2021/11/19 05:34:37;;;;;;;39.57;23.30;;;10.80;99.90;;;;;;5127048;27;20193;-57
2021/11/19 05:37:05;;;;;;;42.47;24.93;;;10.80;99.90;;;;;;5152282;27;20548;-58
2021/11/19 05:39:35;;;;;;;45.73;24.33;;;10.80;99.90;;;;;;5148372;27;20192;-58
2021/11/19 05:42:05;;;;;;;45.63;25.00;;;10.70;99.90;;;;;;5130518;27;20198;-58
2021/11/19 05:44:35;;;;;;;48.10;25.07;;;10.80;99.90;;;;;;5149227;27;20225;-58
2021/11/19 05:47:04;;;;;;;50.63;25.63;;;10.80;99.90;;;;;;5144360;27;20643;-58
2021/11/19 05:49:33;;;;;;;45.67;24.83;;;10.80;99.90;;;;;;5145934;27;20193;-58
2021/11/19 05:52:04;;;;;;;53.70;26.37;;;10.70;99.90;;;;;;5149080;27;20200;-58
2021/11/19 05:54:35;;;;;;;49.30;25.70;;;10.70;99.90;;;;;;5148893;27;20185;-58
2021/11/19 05:57:07;;;;;;;45.13;26.10;;;10.70;99.90;;;;;;5143315;27;20737;-58
2021/11/19 05:59:37;;;;;;;46.40;25.17;;;10.70;99.90;;;;;;5132311;27;20198;-58
2021/11/19 06:02:08;;;;;;;49.33;25.27;;;10.70;99.90;;;;;;5139655;27;20729;-58
2021/11/19 06:04:39;;;;;;;50.67;25.77;;;10.70;99.90;;;;;;5124734;27;20253;-59
2021/11/19 06:07:09;;;;;;;44.00;25.07;;;10.70;99.90;;;;;;5150668;27;20196;-58
2021/11/19 06:09:40;;;;;;;50.67;26.10;;;10.70;99.90;;;;;;5144758;27;20204;-58
2021/11/19 06:12:12;;;;;;;48.43;26.43;;;10.70;99.90;;;;;;5129125;27;20905;-58
2021/11/19 06:14:46;;;;;;;46.87;25.50;;;10.70;99.90;;;;;;5125516;27;20947;-59
2021/11/19 06:17:25;;;;;;;47.67;24.73;;;10.70;99.90;;;;;;5138962;27;20204;-55
2021/11/19 06:19:58;;;;;;;47.23;26.30;;;10.70;99.90;;;;;;5137098;27;20189;-58
2021/11/19 06:22:32;;;;;;;42.63;24.80;;;10.70;99.90;;;;;;5145181;27;20185;-58
2021/11/19 06:25:00;;;;;;;45.50;25.20;;;10.70;99.90;;;;;;5120024;27;20194;-58
2021/11/19 06:27:33;;;;;;;41.57;24.20;;;10.70;99.90;;;;;;5124816;27;20554;-58
2021/11/19 06:30:03;;;;;;;47.97;24.90;;;10.70;99.90;;;;;;5147031;27;20639;-58
2021/11/19 06:32:32;;;;;;;52.70;26.87;;;10.60;99.90;;;;;;5145146;27;20278;-59
2021/11/19 06:35:01;;;;;;;52.87;25.83;;;10.60;99.90;;;;;;5144342;27;20193;-57
2021/11/19 06:37:31;;;;;;;43.80;26.07;;;10.70;99.90;;;;;;5152872;27;20186;-58
2021/11/19 06:39:59;;;;;;;45.30;25.87;;;10.70;99.90;;;;;;5134493;27;20830;-58
2021/11/19 06:42:28;;;;;;;49.43;26.37;;;10.70;99.90;;;;;;5146388;27;20200;-58
2021/11/19 06:44:56;;;;;;;50.53;26.60;;;10.70;99.90;;;;;;5150007;27;20198;-58
2021/11/19 06:47:25;;;;;;;49.63;26.33;;;10.70;99.90;;;;;;5151039;27;20193;-58
2021/11/19 06:49:54;;;;;;;54.23;27.50;;;10.70;99.90;;;;;;5122933;27;20269;-58
2021/11/19 06:52:22;;;;;;;51.73;26.00;;;10.60;99.90;;;;;;5148447;27;20228;-59
2021/11/19 06:54:52;;;;;;;50.03;26.70;;;10.60;99.90;;;;;;5144492;27;20647;-57
2021/11/19 06:57:21;;;;;;;49.80;26.10;;;10.60;99.90;;;;;;5127336;27;20238;-58
2021/11/19 06:59:50;;;;;;;57.67;26.33;;;10.60;99.90;;;;;;5141629;27;20205;-57
2021/11/19 07:02:18;;;;;;;53.70;27.23;;;10.70;99.90;;;;;;5143889;27;20182;-58
2021/11/19 07:04:47;;;;;;;57.17;26.87;;;10.70;99.90;;;;;;5132266;27;20205;-58
2021/11/19 07:07:16;;;;;;;57.87;27.77;;;10.70;99.90;;;;;;5143495;27;20791;-56
2021/11/19 07:09:45;;;;;;;58.60;28.37;;;10.70;99.90;;;;;;5129121;27;20211;-58
2021/11/19 07:12:16;;;;;;;56.47;27.27;;;10.70;99.90;;;;;;5144659;27;20205;-58
2021/11/19 07:14:45;;;;;;;56.10;28.87;;;10.70;99.90;;;;;;5145194;27;20200;-58
2021/11/19 07:17:14;;;;;;;52.67;27.13;;;10.70;99.90;;;;;;5151589;27;20652;-58
2021/11/19 07:19:43;;;;;;;56.47;27.97;;;10.70;99.90;;;;;;5134704;27;20201;-57
2021/11/19 07:22:13;;;;;;;52.00;26.50;;;10.70;99.90;;;;;;5134361;27;20205;-58
2021/11/19 07:24:42;;;;;;;50.43;27.60;;;10.70;99.90;;;;;;5128900;27;20213;-56
2021/11/19 07:27:13;;;;;;;56.43;27.73;;;10.70;99.90;;;;;;5141628;27;20205;-58
2021/11/19 07:29:43;;;;;;;55.03;28.50;;;10.80;99.90;;;;;;5136980;27;20210;-59
2021/11/19 07:32:12;;;;;;;49.57;26.83;;;10.70;99.90;;;;;;5150509;27;20712;-59
2021/11/19 07:34:41;;;;;;;53.27;27.60;;;10.80;99.90;;;;;;5151478;27;20203;-58
2021/11/19 07:37:12;;;;;;;47.40;26.57;;;10.80;99.90;;;;;;5134609;27;20210;-58
2021/11/19 07:39:41;;;;;;;49.93;25.93;;;10.70;99.90;;;;;;5145228;27;20541;-57
2021/11/19 07:42:09;;;;;;;55.53;27.73;;;10.70;99.90;;;;;;5141984;27;20201;-58
2021/11/19 07:44:38;;;;;;;46.27;25.97;;;10.70;99.90;;;;;;5145879;27;20316;-58
2021/11/19 07:47:08;;;;;;;49.63;26.63;;;10.80;99.90;;;;;;5150075;27;20209;-56
2021/11/19 07:49:37;;;;;;;49.93;27.00;;;10.80;99.90;;;;;;5143002;27;20198;-58
2021/11/19 07:52:06;;;;;;;48.13;26.23;;;10.80;99.90;;;;;;5127197;27;20204;-58
2021/11/19 07:54:35;;;;;;;55.27;26.97;;;10.80;99.90;;;;;;5155344;27;20199;-59
2021/11/19 07:57:04;;;;;;;54.00;27.17;;;10.80;99.90;;;;;;5152893;27;20197;-59
2021/11/19 07:59:35;;;;;;;53.57;26.77;;;10.80;99.90;;;;;;5146365;27;20519;-58
2021/11/19 08:02:04;;;;;;;53.40;27.33;;;10.80;99.90;;;;;;5143441;27;20197;-58
2021/11/19 08:04:36;;;;;;;47.80;27.20;;;10.90;99.90;;;;;;5149823;27;20691;-59
2021/11/19 08:07:07;;;;;;;51.23;27.80;;;10.90;99.90;;;;;;5140372;27;20186;-58
2021/11/19 08:09:36;;;;;;;54.50;28.07;;;10.90;99.90;;;;;;5149385;27;20571;-59
2021/11/19 08:12:05;;;;;;;57.53;27.60;;;10.90;99.90;;;;;;5145490;27;20237;-57
2021/11/19 08:14:34;;;;;;;93.67;48.57;;;11.00;99.90;;;;;;5148997;27;20189;-58
2021/11/19 08:17:11;;;;;;;54.80;30.00;;;10.90;99.90;;;;;;5142049;27;20230;-58
2021/11/19 08:19:45;;;;;;;70.00;39.70;;;11.00;99.90;;;;;;5146584;27;20253;-59
2021/11/19 08:22:15;;;;;;;55.20;29.27;;;11.10;99.90;;;;;;5115727;27;20198;-59
2021/11/19 08:24:44;;;;;;;53.47;28.93;;;11.10;99.90;;;;;;5145240;27;20216;-59
2021/11/19 08:27:17;;;;;;;57.27;32.57;;;11.10;99.90;;;;;;5128368;27;20224;-59
2021/11/19 08:29:48;;;;;;;46.07;26.40;;;11.10;99.90;;;;;;5126392;27;20184;-59
2021/11/19 08:32:19;;;;;;;53.20;28.60;;;11.10;99.90;;;;;;5119689;27;20209;-59
2021/11/19 08:34:50;;;;;;;49.17;27.03;;;11.20;99.90;;;;;;5143902;27;20249;-58
2021/11/19 08:37:19;;;;;;;53.00;30.23;;;11.20;99.90;;;;;;5146076;27;20201;-57
2021/11/19 08:39:48;;;;;;;48.60;26.83;;;11.20;99.90;;;;;;5142583;27;20198;-59
2021/11/19 08:42:22;;;;;;;50.63;28.37;;;11.30;99.90;;;;;;5140256;27;20198;-58
2021/11/19 08:44:50;;;;;;;46.97;26.17;;;11.30;99.90;;;;;;5151975;27;20213;-59
2021/11/19 08:47:40;;;;;;;46.60;26.43;;;11.30;99.90;;;;;;5144886;27;20314;-54
2021/11/19 08:50:12;;;;;;;45.67;29.07;;;11.30;99.90;;;;;;5143647;27;20225;-57
2021/11/19 08:52:40;;;;;;;50.53;30.80;;;11.30;99.90;;;;;;5131010;27;20239;-58
2021/11/19 08:55:12;;;;;;;50.73;33.50;;;11.30;99.90;;;;;;5128658;27;20186;-59
2021/11/19 08:57:41;;;;;;;38.67;24.57;;;11.40;99.90;;;;;;5146387;27;20224;-58
2021/11/19 09:00:13;;;;;;;38.70;24.40;;;11.40;99.90;;;;;;5134951;27;20249;-57
2021/11/19 09:02:42;;;;;;;37.70;23.63;;;11.40;99.90;;;;;;5146879;27;20201;-58
2021/11/19 09:05:14;;;;;;;33.47;21.93;;;11.50;99.90;;;;;;5127368;27;20220;-58
2021/11/19 09:07:42;;;;;;;35.03;22.03;;;11.50;99.90;;;;;;5130730;27;20203;-59
2021/11/19 09:10:13;;;;;;;31.67;20.83;;;11.60;99.90;;;;;;5144759;27;20683;-59
2021/11/19 09:12:42;;;;;;;36.47;21.70;;;11.60;99.90;;;;;;5148594;27;20202;-58
2021/11/19 09:15:12;;;;;;;33.20;21.77;;;11.70;99.90;;;;;;5151307;27;20199;-58
2021/11/19 09:17:52;;;;;;;32.00;20.93;;;11.70;99.90;;;;;;5128191;27;20193;-58
2021/11/19 09:20:28;;;;;;;31.57;20.60;;;11.80;99.90;;;;;;5151609;27;20181;-58
2021/11/19 09:23:08;;;;;;;29.70;20.07;;;11.90;99.90;;;;;;5120796;27;20295;-59
2021/11/19 09:25:39;;;;;;;29.07;19.67;;;12.00;99.90;;;;;;5148066;27;20233;-59
2021/11/19 09:28:08;;;;;;;31.87;18.77;;;12.10;99.90;;;;;;5145314;27;20185;-59
2021/11/19 09:30:40;;;;;;;26.37;17.93;;;12.10;99.90;;;;;;5148367;27;20193;-58
2021/11/19 09:33:13;;;;;;;26.47;17.93;;;12.20;99.90;;;;;;5146108;27;20201;-59
2021/11/19 09:35:43;;;;;;;24.93;17.03;;;12.20;99.90;;;;;;5131479;27;20208;-59
2021/11/19 09:38:14;;;;;;;24.17;17.20;;;12.30;99.90;;;;;;5123336;27;20281;-58
2021/11/19 09:40:44;;;;;;;21.27;15.87;;;12.30;99.90;;;;;;5145109;27;20706;-59
2021/11/19 09:43:22;;;;;;;22.90;16.40;;;12.40;99.90;;;;;;5106529;27;20424;-58
2021/11/19 09:46:17;;;;;;;22.87;16.43;;;12.40;99.90;;;;;;5143497;27;20638;-59
2021/11/19 09:48:55;;;;;;;25.97;15.43;;;12.50;99.90;;;;;;5145079;27;20209;-58
2021/11/19 09:52:14;;;;;;;20.33;15.70;;;12.60;99.90;;;;;;5147615;27;20193;-58
2021/11/19 09:55:16;;;;;;;20.57;14.43;;;12.60;99.90;;;;;;5151995;27;20197;-59
2021/11/19 09:58:23;;;;;;;21.43;14.50;;;12.70;99.90;;;;;;5142200;27;20738;-59
2021/11/19 10:01:16;;;;;;;20.60;13.73;;;12.80;99.90;;;;;;5139690;27;20281;-56
2021/11/19 10:04:12;;;;;;;21.33;13.70;;;12.90;99.90;;;;;;5131760;27;20212;-59
2021/11/19 10:06:46;;;;;;;17.03;13.60;;;12.90;99.90;;;;;;5158525;27;20266;-58
2021/11/19 10:09:19;;;;;;;16.50;12.80;;;13.00;99.90;;;;;;5152257;27;20673;-58
2021/11/19 10:11:53;;;;;;;18.03;13.07;;;13.00;99.90;;;;;;5167740;27;20245;-59
2021/11/19 10:14:37;;;;;;;15.13;12.17;;;13.00;99.90;;;;;;5152747;27;20279;-58
2021/11/19 10:17:26;;;;;;;32.83;23.77;;;13.20;99.90;;;;;;5151382;27;20185;-58
2021/11/19 10:20:02;;;;;;;22.50;13.93;;;13.30;99.90;;;;;;5143141;27;20205;-58
2021/11/19 10:22:34;;;;;;;17.23;12.43;;;13.30;99.90;;;;;;5154932;27;20279;-59
2021/11/19 10:25:09;;;;;;;14.50;11.90;;;13.30;99.90;;;;;;5152005;27;20203;-58
2021/11/19 10:27:43;;;;;;;15.83;12.10;;;13.40;99.90;;;;;;5151080;27;20201;-58
2021/11/19 10:30:27;;;;;;;18.33;12.53;;;13.40;99.90;;;;;;5142079;27;20277;-59
2021/11/19 10:33:01;;;;;;;15.43;11.37;;;13.40;99.90;;;;;;5155561;27;20246;-59
2021/11/19 10:35:45;;;;;;;20.83;13.70;;;13.40;99.90;;;;;;5148474;27;20242;-59
2021/11/19 10:38:55;;;;;;;17.10;11.97;;;13.40;99.90;;;;;;5157375;27;20220;-58
2021/11/19 10:42:05;;;;;;;15.97;11.83;;;13.50;99.90;;;;;;5154802;27;20194;-58
2021/11/19 10:45:08;;;;;;;14.30;12.53;;;13.40;99.90;;;;;;5146745;27;20260;-58
2021/11/19 10:48:19;;;;;;;19.23;12.97;;;13.40;99.90;;;;;;5148325;27;20305;-59
2021/11/19 10:51:20;;;;;;;16.83;13.73;;;13.40;99.90;;;;;;5151518;27;20266;-59
2021/11/19 10:54:24;;;;;;;28.70;22.37;;;13.40;99.90;;;;;;5110489;27;20206;-58
2021/11/19 10:57:07;;;;;;;16.13;13.37;;;13.40;99.90;;;;;;5118315;27;20202;-59
2021/11/19 10:59:39;;;;;;;16.90;13.30;;;13.40;99.90;;;;;;5133410;27;20220;-59
2021/11/19 11:02:36;;;;;;;18.43;15.20;;;13.40;99.90;;;;;;5132226;27;20562;-58
2021/11/19 11:05:26;;;;;;;18.03;14.57;;;13.40;99.90;;;;;;5132306;27;20220;-58
2021/11/19 11:08:06;;;;;;;19.60;15.90;;;13.40;99.90;;;;;;5143911;27;20255;-58
2021/11/19 11:10:38;;;;;;;22.57;17.93;;;13.30;99.90;;;;;;5147529;27;20196;-58
2021/11/19 11:13:30;;;;;;;20.50;16.23;;;13.30;99.90;;;;;;5144685;27;20178;-58
2021/11/19 11:16:02;;;;;;;19.00;15.23;;;13.40;99.90;;;;;;5156461;27;20202;-58
2021/11/19 11:18:35;;;;;;;23.53;16.63;;;13.40;99.90;;;;;;5146766;27;20250;-59
2021/11/19 11:21:24;;;;;;;19.40;16.10;;;13.50;99.90;;;;;;5146927;27;20189;-57
2021/11/19 11:24:03;;;;;;;21.73;16.50;;;13.60;99.90;;;;;;5143485;27;20242;-59
2021/11/19 11:26:40;;;;;;;19.13;16.60;;;13.70;99.90;;;;;;5153125;27;20205;-59
2021/11/19 11:29:40;;;;;;;19.30;15.97;;;13.80;99.90;;;;;;5123803;27;20255;-57
2021/11/19 11:32:17;;;;;;;22.60;16.83;;;14.00;99.90;;;;;;5149072;27;20193;-59
2021/11/19 11:35:01;;;;;;;26.83;17.20;;;14.10;99.90;;;;;;5147554;27;20378;-56
2021/11/19 11:37:43;;;;;;;24.23;18.20;;;14.10;99.90;;;;;;5147293;27;20272;-59
2021/11/19 11:40:20;;;;;;;24.00;18.00;;;14.20;99.90;;;;;;5149189;27;20195;-58
2021/11/19 11:42:52;;;;;;;20.50;17.63;;;14.10;99.90;;;;;;5132095;27;20248;-58
2021/11/19 11:45:31;;;;;;;21.37;17.93;;;14.10;99.90;;;;;;5151782;27;20261;-57
2021/11/19 11:48:11;;;;;;;22.77;18.53;;;14.10;99.90;;;;;;5146068;27;20218;-59
2021/11/19 11:50:49;;;;;;;24.67;18.43;;;14.10;99.90;;;;;;5143423;27;20202;-58
2021/11/19 11:53:20;;;;;;;21.50;17.77;;;14.10;99.90;;;;;;5144856;27;20211;-58
2021/11/19 11:56:16;;;;;;;23.83;19.23;;;14.10;99.90;;;;;;5142331;27;21437;-58
2021/11/19 11:58:49;;;;;;;21.83;17.53;;;14.10;99.90;;;;;;5143502;27;20201;-57
2021/11/19 12:01:31;;;;;;;24.27;17.90;;;14.10;99.90;;;;;;5149205;27;20672;-58
2021/11/19 12:04:47;;;;;;;20.37;16.53;;;14.10;99.90;;;;;;5140290;27;20243;-58
2021/11/19 12:08:08;;;;;;;25.57;18.07;;;14.10;99.90;;;;;;5149452;27;20703;-58
2021/11/19 12:11:00;;;;;;;22.83;18.83;;;14.00;99.90;;;;;;5129497;27;20186;-58
2021/11/19 12:13:39;;;;;;;24.87;18.87;;;13.90;99.90;;;;;;5125554;27;20475;-58
2021/11/19 12:16:13;;;;;;;26.33;20.00;;;13.80;99.90;;;;;;5137827;27;20700;-57
2021/11/19 12:18:47;;;;;;;25.67;19.87;;;13.80;99.90;;;;;;5153522;27;20243;-58
2021/11/19 12:21:25;;;;;;;24.47;20.13;;;13.80;99.90;;;;;;5152428;27;20193;-58
2021/11/19 12:23:59;;;;;;;33.93;21.17;;;13.70;99.90;;;;;;5139959;27;20272;-58
2021/11/19 12:26:46;;;;;;;28.20;20.43;;;13.60;99.90;;;;;;5121045;27;20200;-57
2021/11/19 12:29:26;;;;;;;31.93;19.87;;;13.60;99.90;;;;;;5139503;27;20770;-58
2021/11/19 12:32:06;;;;;;;29.73;21.20;;;13.60;99.90;;;;;;5143454;27;20193;-58
2021/11/19 12:34:37;;;;;;;28.60;21.43;;;13.50;99.90;;;;;;5151214;27;20186;-58
2021/11/19 12:37:10;;;;;;;28.17;21.90;;;13.50;99.90;;;;;;5154740;27;20205;-59
2021/11/19 12:39:44;;;;;;;32.03;23.20;;;13.40;99.90;;;;;;5127777;27;20197;-58
2021/11/19 12:42:30;;;;;;;26.40;20.30;;;13.40;99.90;;;;;;5146171;27;20745;-58
2021/11/19 12:45:11;;;;;;;30.10;22.43;;;13.40;99.90;;;;;;5150106;27;20193;-58
2021/11/19 12:48:33;;;;;;;30.40;21.63;;;13.40;99.90;;;;;;5143556;27;20262;-58
2021/11/19 12:51:10;;;;;;;28.50;19.77;;;13.50;99.90;;;;;;5152175;27;20726;-58
2021/11/19 12:53:56;;;;;;;25.83;20.17;;;13.50;99.90;;;;;;5147729;27;20218;-58
2021/11/19 12:56:54;;;;;;;27.67;20.77;;;13.50;99.90;;;;;;5118943;27;20201;-59
2021/11/19 12:59:40;;;;;;;37.20;19.60;;;13.50;99.90;;;;;;5143613;27;20267;-59
2021/11/19 13:02:28;;;;;;;27.87;19.77;;;13.40;99.90;;;;;;5127057;27;20593;-58
2021/11/19 13:05:21;;;;;;;25.47;19.20;;;13.40;99.90;;;;;;5151308;27;20792;-59